Time;durP1;ratioP1;P1;durP2;ratioP2;P2;SDS_P1;SDS_P2;PMS_P1;PMS_P2;Temp;Humidity;BMP_temperature;BMP_pressure;BME280_temperature;BME280_humidity;BME280_pressure;Samples;Min_cycle;Max_cycle;Signal;HPM_P1;HPM_P2
2021/12/03 00:00:44;;;;;;;10.10;3.67;;;;;;;7.70;71.62;97093.72;4487640;32;20164;-82
2021/12/03 00:03:10;;;;;;;9.85;3.62;;;;;;;7.87;70.53;97097.78;4473319;32;20117;-82
2021/12/03 00:05:37;;;;;;;11.00;4.00;;;;;;;7.59;71.33;97096.22;4487327;32;20100;-82
2021/12/03 00:08:03;;;;;;;12.40;3.75;;;;;;;7.45;72.16;97099.81;4487664;32;20118;-82
2021/12/03 00:10:29;;;;;;;10.95;4.07;;;;;;;7.53;71.76;97099.28;4473024;32;20128;-81
2021/12/03 00:12:57;;;;;;;11.02;3.87;;;;;;;7.61;71.82;97103.06;4487542;32;20093;-82
2021/12/03 00:15:25;;;;;;;10.82;4.12;;;;;;;7.52;71.43;97100.25;4473439;32;20110;-82
2021/12/03 00:17:50;;;;;;;11.63;4.10;;;;;;;7.82;70.53;97100.72;4487215;32;20080;-82
2021/12/03 00:20:17;;;;;;;11.10;4.10;;;;;;;7.84;70.49;97097.97;4487499;32;20175;-82
2021/12/03 00:22:44;;;;;;;11.40;3.42;;;;;;;7.62;70.82;97096.03;4487509;32;20100;-82
2021/12/03 00:25:10;;;;;;;9.82;3.12;;;;;;;7.64;70.75;97094.16;4473234;32;20135;-82
2021/12/03 00:27:36;;;;;;;10.43;3.50;;;;;;;7.27;72.02;97097.53;4487451;32;20092;-83
2021/12/03 00:30:03;;;;;;;9.30;3.30;;;;;;;7.44;71.50;97109.47;4486978;32;20164;-82
2021/12/03 00:32:29;;;;;;;9.20;2.97;;;;;;;7.40;71.70;97115.03;4472814;32;20127;-82
2021/12/03 00:34:54;;;;;;;9.35;2.80;;;;;;;7.29;71.54;97121.81;4486866;32;20093;-82
2021/12/03 00:37:20;;;;;;;9.43;3.05;;;;;;;7.27;70.64;97128.13;4473133;32;20348;-81
2021/12/03 00:39:45;;;;;;;8.85;2.67;;;;;;;7.13;71.48;97134.28;4473096;32;20416;-82
2021/12/03 00:42:15;;;;;;;7.97;2.70;;;;;;;6.84;72.57;97133.63;4487029;32;20085;-82
2021/12/03 00:44:40;;;;;;;7.87;2.80;;;;;;;7.09;71.34;97131.03;4487409;32;20116;-82
2021/12/03 00:47:06;;;;;;;6.75;2.33;;;;;;;7.24;70.68;97138.78;4487272;32;20114;-82
2021/12/03 00:49:31;;;;;;;8.10;2.28;;;;;;;6.83;72.43;97138.00;4487107;32;20085;-82
2021/12/03 00:51:57;;;;;;;8.75;2.50;;;;;;;6.92;72.30;97146.19;4487385;32;20132;-82
2021/12/03 00:54:22;;;;;;;8.32;2.20;;;;;;;7.03;71.33;97147.16;4487042;32;20128;-82
2021/12/03 00:56:47;;;;;;;8.65;2.47;;;;;;;6.88;71.48;97151.63;4473089;32;20135;-82
2021/12/03 00:59:14;;;;;;;7.87;2.47;;;;;;;6.88;71.51;97148.19;4487109;32;20122;-82
2021/12/03 01:01:39;;;;;;;7.90;2.58;;;;;;;6.84;71.68;97150.16;4489429;31;20100;-83
2021/12/03 01:04:05;;;;;;;5.47;1.95;;;;;;;6.98;71.15;97141.38;4488592;31;20153;-83
2021/12/03 01:06:31;;;;;;;7.55;2.00;;;;;;;6.84;71.63;97138.84;4503181;31;20071;-83
2021/12/03 01:08:56;;;;;;;6.85;2.05;;;;;;;6.97;70.99;97147.53;4503138;31;20190;-83
2021/12/03 01:11:21;;;;;;;6.57;2.08;;;;;;;7.15;70.37;97155.16;4502493;31;20371;-82
2021/12/03 01:13:47;;;;;;;7.90;2.28;;;;;;;7.03;70.62;97151.53;4503101;31;20084;-82
2021/12/03 01:16:15;;;;;;;6.12;1.77;;;;;;;7.00;70.84;97149.97;4502888;31;20083;-82
2021/12/03 01:18:45;;;;;;;7.57;2.33;;;;;;;7.00;70.34;97157.00;4502987;31;20145;-85
2021/12/03 01:21:11;;;;;;;6.75;2.10;;;;;;;6.87;70.06;97155.16;4503028;31;20546;-82
2021/12/03 01:23:37;;;;;;;7.87;2.03;;;;;;;6.80;70.64;97153.91;4488623;31;20110;-82
2021/12/03 01:26:04;;;;;;;7.10;1.92;;;;;;;6.81;69.96;97160.81;4502964;31;20083;-82
2021/12/03 01:28:29;;;;;;;7.22;2.15;;;;;;;6.63;71.01;97164.63;4502987;31;20487;-83
2021/12/03 01:30:57;;;;;;;6.82;2.10;;;;;;;6.99;69.29;97153.53;4482826;31;20127;-81
2021/12/03 01:33:23;;;;;;;6.68;2.10;;;;;;;7.19;68.98;97152.22;4490983;31;20100;-83
2021/12/03 01:35:48;;;;;;;7.28;2.20;;;;;;;7.06;68.60;97162.66;4472812;32;20424;-82
2021/12/03 01:38:13;;;;;;;8.07;2.30;;;;;;;6.95;69.00;97166.91;4487028;32;20123;-82
2021/12/03 01:40:40;;;;;;;7.93;2.30;;;;;;;6.72;69.42;97171.03;4472782;32;20122;-82
2021/12/03 01:43:07;;;;;;;7.30;2.30;;;;;;;6.56;69.77;97169.41;4472903;32;20114;-82
2021/12/03 01:45:36;;;;;;;7.20;2.30;;;;;;;6.40;70.96;97179.19;4486818;32;20443;-82
2021/12/03 01:48:03;;;;;;;7.18;2.22;;;;;;;6.47;70.49;97183.06;4472933;32;20372;-82
2021/12/03 01:50:36;;;;;;;8.90;2.40;;;;;;;6.53;70.63;97180.09;4472865;32;20496;-82
2021/12/03 01:53:02;;;;;;;8.30;2.30;;;;;;;6.65;70.06;97184.53;4487247;32;20110;-82
2021/12/03 01:55:28;;;;;;;6.62;2.10;;;;;;;6.82;69.33;97186.06;4487025;32;20084;-82
2021/12/03 01:57:53;;;;;;;8.43;2.45;;;;;;;7.12;67.96;97184.12;4487066;32;20142;-82
2021/12/03 02:00:26;;;;;;;8.40;2.28;;;;;;;6.48;70.43;97182.97;4487141;32;20127;-82
2021/12/03 02:02:51;;;;;;;6.87;2.20;;;;;;;6.77;68.65;97193.34;4487109;32;20092;-82
2021/12/03 02:05:17;;;;;;;6.85;2.10;;;;;;;6.67;69.52;97184.44;4486995;32;20321;-82
2021/12/03 02:07:43;;;;;;;8.50;2.25;;;;;;;6.82;68.65;97186.06;4487059;32;20143;-82
2021/12/03 02:10:09;;;;;;;8.82;2.53;;;;;;;7.07;67.77;97195.75;4472393;32;20096;-82
2021/12/03 02:12:35;;;;;;;7.28;2.05;;;;;;;7.21;67.27;97187.00;4472649;32;20084;-82
2021/12/03 02:15:00;;;;;;;8.82;2.70;;;;;;;6.71;68.17;97192.94;4486797;32;20472;-82
2021/12/03 02:17:26;;;;;;;8.98;2.67;;;;;;;6.84;67.54;97189.41;4472511;32;20108;-82
2021/12/03 02:19:51;;;;;;;7.10;2.12;;;;;;;6.73;68.24;97188.44;4486684;32;20088;-83
2021/12/03 02:22:17;;;;;;;8.38;2.20;;;;;;;6.61;68.67;97187.44;4472395;32;20145;-82
2021/12/03 02:24:43;;;;;;;8.63;2.30;;;;;;;6.73;68.71;97196.28;4472223;32;20110;-82
2021/12/03 02:27:08;;;;;;;7.80;2.50;;;;;;;6.45;69.26;97205.88;4472457;32;20131;-82
2021/12/03 02:29:34;;;;;;;8.15;2.50;;;;;;;6.63;69.72;97212.56;4486473;32;20393;-83
2021/12/03 02:31:59;;;;;;;6.35;2.25;;;;;;;6.75;68.37;97202.25;4472304;32;20100;-82
2021/12/03 02:34:24;;;;;;;7.75;2.50;;;;;;;6.64;69.16;97211.63;4486454;32;20106;-82
2021/12/03 02:36:50;;;;;;;7.20;2.28;;;;;;;6.66;69.11;97207.16;4459229;32;20115;-82
2021/12/03 02:39:15;;;;;;;7.87;2.42;;;;;;;6.62;69.21;97216.09;4486384;32;20100;-82
2021/12/03 02:41:41;;;;;;;7.95;2.35;;;;;;;6.95;67.55;97232.38;4472134;32;20107;-82
2021/12/03 02:44:06;;;;;;;7.78;2.58;;;;;;;6.73;69.11;97235.53;4486178;32;20112;-81
2021/12/03 02:46:32;;;;;;;8.65;2.85;;;;;;;6.69;69.66;97245.34;4482402;31;20147;-81
2021/12/03 02:48:57;;;;;;;10.10;3.40;;;;;;;6.63;69.43;97243.97;4489731;31;20107;-81
2021/12/03 02:51:23;;;;;;;10.02;4.03;;;;;;;6.79;69.33;97243.81;4486102;32;20136;-81
2021/12/03 02:53:48;;;;;;;11.45;4.12;;;;;;;6.88;69.16;97245.03;4473348;31;20247;-81
2021/12/03 02:56:14;;;;;;;12.75;5.30;;;;;;;7.09;68.87;97245.41;4472138;32;20440;-83
2021/12/03 02:58:39;;;;;;;15.50;5.80;;;;;;;6.97;68.84;97259.28;4488303;32;20088;-82
2021/12/03 03:01:07;;;;;;;15.70;5.45;;;;;;;6.92;69.74;97256.97;4474141;32;20089;-82
2021/12/03 03:03:33;;;;;;;15.95;6.65;;;;;;;6.94;69.38;97260.34;4501029;31;20145;-82
2021/12/03 03:06:01;;;;;;;16.35;7.07;;;;;;;6.93;70.65;97270.91;4504058;31;20092;-81
2021/12/03 03:08:28;;;;;;;17.77;8.30;;;;;;;6.53;72.96;97276.88;4504185;31;20084;-82
2021/12/03 03:10:55;;;;;;;19.95;8.75;;;;;;;6.87;71.79;97291.28;4503631;31;20455;-82
2021/12/03 03:13:21;;;;;;;18.25;9.40;;;;;;;6.98;71.54;97295.84;4484333;32;20129;-82
2021/12/03 03:15:47;;;;;;;19.33;9.25;;;;;;;7.19;70.75;97301.50;4487907;32;20088;-82
2021/12/03 03:18:19;;;;;;;19.83;10.27;;;;;;;7.14;71.23;97308.78;4473804;32;20166;-82
2021/12/03 03:20:45;;;;;;;24.40;9.75;;;;;;;6.73;73.33;97311.44;4488136;32;20208;-82
2021/12/03 03:23:12;;;;;;;20.98;10.30;;;;;;;7.20;71.54;97318.03;4473963;32;20131;-82
2021/12/03 03:25:42;;;;;;;22.70;11.40;;;;;;;7.01;72.30;97318.37;4486860;31;20120;-81
2021/12/03 03:28:09;;;;;;;25.70;11.82;;;;;;;6.72;73.82;97325.44;4489075;31;20095;-82
2021/12/03 03:30:35;;;;;;;25.33;12.32;;;;;;;7.03;72.78;97319.09;4503132;31;20139;-80
2021/12/03 03:33:02;;;;;;;24.50;12.07;;;;;;;6.67;74.35;97334.41;4503870;31;20108;-81
2021/12/03 03:35:27;;;;;;;22.92;11.32;;;;;;;6.85;73.37;97327.19;4489115;31;20511;-81
2021/12/03 03:37:53;;;;;;;22.62;12.07;;;;;;;6.82;73.76;97335.25;4503379;31;20092;-82
2021/12/03 03:40:18;;;;;;;24.58;11.85;;;;;;;6.74;74.16;97337.53;4503332;31;20087;-81
2021/12/03 03:42:44;;;;;;;26.50;13.43;;;;;;;6.78;74.05;97332.91;4503119;31;20092;-81
2021/12/03 03:45:13;;;;;;;23.12;12.05;;;;;;;7.11;72.67;97345.66;4488986;31;20100;-82
2021/12/03 03:47:39;;;;;;;24.00;12.27;;;;;;;7.01;72.87;97350.66;4503288;31;20160;-81
2021/12/03 03:50:06;;;;;;;24.55;11.65;;;;;;;6.87;72.79;97358.50;4503302;31;20343;-82
2021/12/03 03:52:33;;;;;;;22.87;11.88;;;;;;;6.88;72.86;97352.34;4503406;31;20099;-81
2021/12/03 03:54:59;;;;;;;22.33;11.90;;;;;;;6.59;73.73;97362.00;4488639;31;20122;-82
2021/12/03 03:57:24;;;;;;;24.50;12.50;;;;;;;6.81;72.93;97361.50;4503350;31;20155;-82
2021/12/03 03:59:50;;;;;;;23.75;12.75;;;;;;;6.19;75.30;97367.03;4488801;31;20109;-82
2021/12/03 04:02:16;;;;;;;24.58;11.73;;;;;;;6.23;75.03;97364.13;4503291;31;20179;-81
2021/12/03 04:04:41;;;;;;;24.63;11.23;;;;;;;6.01;75.18;97363.75;4488965;31;20355;-81
2021/12/03 04:07:06;;;;;;;22.42;10.88;;;;;;;6.05;75.88;97360.84;4502822;31;20122;-80
2021/12/03 04:09:32;;;;;;;22.23;11.88;;;;;;;6.10;75.33;97369.25;4503114;31;20115;-80
2021/12/03 04:11:57;;;;;;;26.23;12.90;;;;;;;5.90;76.71;97367.78;4488649;31;20109;-81
2021/12/03 04:14:23;;;;;;;26.05;12.57;;;;;;;6.16;75.30;97357.59;4503260;31;20172;-81
2021/12/03 04:16:48;;;;;;;23.70;11.80;;;;;;;5.97;76.35;97367.44;4503199;31;20126;-80
2021/12/03 04:19:14;;;;;;;26.45;12.52;;;;;;;5.94;76.08;97378.91;4486024;31;20092;-80
2021/12/03 04:21:39;;;;;;;23.58;11.82;;;;;;;5.97;76.18;97377.91;4487062;31;20124;-80
2021/12/03 04:24:06;;;;;;;22.83;12.23;;;;;;;5.98;76.35;97390.06;4473052;32;20384;-81
2021/12/03 04:26:31;;;;;;;23.92;12.00;;;;;;;5.99;76.21;97407.41;4487474;32;20122;-81
2021/12/03 04:28:56;;;;;;;23.10;12.05;;;;;;;5.78;77.11;97409.47;4473191;32;20113;-82
2021/12/03 04:31:22;;;;;;;23.87;12.88;;;;;;;5.94;76.28;97409.44;4487247;32;20128;-81
2021/12/03 04:33:47;;;;;;;26.25;12.98;;;;;;;6.10;74.88;97416.31;4487454;32;20448;-81
2021/12/03 04:36:13;;;;;;;25.42;12.50;;;;;;;6.04;75.08;97424.50;4487484;32;20089;-81
2021/12/03 04:38:39;;;;;;;23.80;11.73;;;;;;;5.90;75.54;97434.91;4487369;32;20469;-81
2021/12/03 04:41:04;;;;;;;23.00;11.82;;;;;;;5.91;74.54;97437.44;4484472;31;22220;-81
2021/12/03 04:43:30;;;;;;;26.48;12.60;;;;;;;5.90;74.83;97437.50;4477843;32;20395;-81
2021/12/03 04:45:56;;;;;;;23.77;12.37;;;;;;;5.96;74.52;97445.03;4472934;32;20104;-81
2021/12/03 04:48:22;;;;;;;23.77;12.75;;;;;;;5.42;76.70;97461.06;4487230;32;20084;-81
2021/12/03 04:50:47;;;;;;;25.98;12.98;;;;;;;5.63;76.12;97452.97;4486758;32;20539;-81
2021/12/03 04:53:13;;;;;;;23.95;12.80;;;;;;;5.67;75.58;97464.94;4487360;32;20390;-81
2021/12/03 04:55:39;;;;;;;24.75;12.93;;;;;;;5.87;74.75;97471.66;4485886;31;20097;-81
2021/12/03 04:58:06;;;;;;;25.90;12.93;;;;;;;5.52;75.43;97479.69;4486985;31;20365;-81
2021/12/03 05:00:35;;;;;;;25.58;12.63;;;;;;;5.50;75.80;97478.94;4487083;31;20100;-82
2021/12/03 05:03:01;;;;;;;24.48;12.20;;;;;;;5.38;76.67;97472.63;4486741;32;20177;-83
2021/12/03 05:05:31;;;;;;;28.65;12.88;;;;;;;5.71;74.71;97482.12;4487103;32;20144;-81
2021/12/03 05:08:01;;;;;;;24.45;12.15;;;;;;;5.61;75.00;97481.78;4487226;32;20096;-81
2021/12/03 05:10:33;;;;;;;24.63;13.05;;;;;;;5.49;75.10;97474.66;4473104;32;20088;-81
2021/12/03 05:13:04;;;;;;;25.45;12.60;;;;;;;5.50;74.92;97494.59;4487087;32;20153;-81
2021/12/03 05:15:31;;;;;;;28.98;14.10;;;;;;;5.58;74.06;97486.34;4486711;32;20118;-81
2021/12/03 05:17:56;;;;;;;28.15;13.57;;;;;;;5.64;73.74;97493.84;4472782;32;20123;-81
2021/12/03 05:20:21;;;;;;;27.67;13.15;;;;;;;5.32;74.98;97502.50;4471944;32;20095;-80
2021/12/03 05:22:47;;;;;;;26.90;12.98;;;;;;;5.51;73.89;97512.81;4486868;32;20156;-81
2021/12/03 05:25:12;;;;;;;26.95;13.25;;;;;;;5.32;73.39;97514.72;4472757;32;20578;-81
2021/12/03 05:27:39;;;;;;;24.65;11.70;;;;;;;5.28;73.48;97532.34;4486538;32;20096;-80
2021/12/03 05:30:07;;;;;;;27.20;13.20;;;;;;;5.26;72.50;97526.34;4486579;32;20515;-81
2021/12/03 05:32:33;;;;;;;26.87;11.80;;;;;;;5.19;72.30;97535.41;4472617;32;20544;-81
2021/12/03 05:34:58;;;;;;;26.37;11.80;;;;;;;5.11;71.41;97543.66;4472675;32;20100;-81
2021/12/03 05:37:23;;;;;;;24.65;10.88;;;;;;;4.95;71.69;97549.78;4472575;32;20353;-81
2021/12/03 05:39:49;;;;;;;24.12;10.35;;;;;;;4.86;71.19;97551.91;4486549;32;20081;-80
2021/12/03 05:42:14;;;;;;;24.98;10.35;;;;;;;4.76;71.16;97568.13;4462390;31;20119;-81
2021/12/03 05:44:40;;;;;;;23.05;9.77;;;;;;;4.81;70.38;97568.72;4502450;31;20134;-80
2021/12/03 05:47:05;;;;;;;22.30;9.80;;;;;;;4.84;69.65;97586.84;4502551;31;20460;-80
2021/12/03 05:49:31;;;;;;;26.08;12.02;;;;;;;4.75;69.96;97595.13;4487959;31;20092;-80
2021/12/03 05:51:57;;;;;;;23.00;9.93;;;;;;;4.79;69.14;97601.88;4480633;32;20149;-81
2021/12/03 05:54:23;;;;;;;19.62;9.45;;;;;;;5.09;68.96;97610.75;4486955;32;20135;-82
2021/12/03 05:56:48;;;;;;;23.15;9.15;;;;;;;4.89;68.11;97619.62;4486729;32;20064;-81
2021/12/03 05:59:14;;;;;;;22.52;9.82;;;;;;;4.80;67.73;97627.91;4472551;32;20352;-81
2021/12/03 06:01:40;;;;;;;22.00;9.23;;;;;;;5.00;67.00;97637.31;4486781;32;20073;-80
2021/12/03 06:04:05;;;;;;;20.85;8.00;;;;;;;5.03;66.45;97639.78;4472487;32;20153;-81
2021/12/03 06:06:31;;;;;;;22.65;8.32;;;;;;;4.96;65.54;97648.84;4486496;32;20080;-81
2021/12/03 06:08:59;;;;;;;19.20;6.43;;;;;;;4.84;64.81;97645.09;4486592;32;20474;-81
2021/12/03 06:11:25;;;;;;;18.75;7.30;;;;;;;5.03;63.50;97660.69;4486278;32;20092;-81
2021/12/03 06:13:51;;;;;;;18.25;6.80;;;;;;;4.82;63.64;97651.31;4486514;32;20459;-81
2021/12/03 06:16:16;;;;;;;16.55;6.82;;;;;;;4.72;62.96;97663.97;4486411;32;20088;-80
2021/12/03 06:18:42;;;;;;;17.92;6.80;;;;;;;4.93;62.20;97657.69;4472280;32;20080;-81
2021/12/03 06:21:10;;;;;;;18.50;6.57;;;;;;;4.86;62.02;97658.91;4486473;32;20084;-81
2021/12/03 06:23:35;;;;;;;;;;;;;;;4.87;61.26;97665.81;4472412;32;20101;-80
2021/12/03 06:26:01;;;;;;;17.20;5.90;;;;;;;4.97;61.30;97670.59;4486313;32;19986;-81
2021/12/03 06:28:30;;;;;;;14.68;5.12;;;;;;;4.89;59.60;97686.63;4472013;32;20103;-81
2021/12/03 06:30:56;;;;;;;13.98;5.18;;;;;;;4.74;60.94;97688.22;4471949;32;20250;-81
2021/12/03 06:33:22;;;;;;;15.95;5.50;;;;;;;4.86;59.94;97690.22;4461136;32;20112;-81
2021/12/03 06:35:48;;;;;;;15.43;4.75;;;;;;;4.77;59.76;97700.25;4488600;32;20085;-81
2021/12/03 06:38:14;;;;;;;14.75;4.82;;;;;;;4.47;60.06;97729.50;4474156;32;20103;-81
2021/12/03 06:40:41;;;;;;;15.02;4.28;;;;;;;4.41;60.51;97719.38;4460868;32;20520;-81
2021/12/03 06:43:06;;;;;;;13.68;4.20;;;;;;;4.45;59.81;97724.34;4473881;32;20416;-81
2021/12/03 06:45:32;;;;;;;14.82;4.78;;;;;;;4.73;58.84;97741.31;4488121;32;20112;-80
2021/12/03 06:47:57;;;;;;;12.20;4.20;;;;;;;4.70;58.30;97736.25;4488103;32;20080;-81
2021/12/03 06:50:23;;;;;;;13.93;3.92;;;;;;;4.66;58.57;97759.03;4473752;32;20105;-81
2021/12/03 06:53:01;;;;;;;14.87;4.68;;;;;;;4.59;58.60;97751.56;4488124;32;20119;-81
2021/12/03 06:55:27;;;;;;;14.77;4.07;;;;;;;4.42;58.44;97753.19;4475092;32;20194;-81
2021/12/03 06:57:53;;;;;;;17.25;4.15;;;;;;;4.53;58.60;97745.69;4473926;32;20187;-81
2021/12/03 07:00:18;;;;;;;13.23;3.55;;;;;;;4.36;58.96;97771.72;4487995;32;20084;-81
2021/12/03 07:02:44;;;;;;;12.43;3.37;;;;;;;4.33;57.86;97759.69;4488035;32;20458;-81
2021/12/03 07:05:10;;;;;;;13.60;3.53;;;;;;;4.55;58.17;97761.28;4487930;32;20076;-81
2021/12/03 07:07:36;;;;;;;12.10;3.25;;;;;;;4.60;57.51;97768.91;4473714;32;20112;-81
2021/12/03 07:10:04;;;;;;;12.18;3.67;;;;;;;4.52;57.69;97780.53;4487664;32;20406;-81
2021/12/03 07:12:29;;;;;;;;;;;;;;;4.27;57.69;97791.25;4488413;32;20451;-82
2021/12/03 07:14:54;;;;;;;11.12;3.10;;;;;;;4.46;57.34;97795.59;4473820;32;19998;-82
2021/12/03 07:17:20;;;;;;;11.50;3.10;;;;;;;4.53;56.38;97799.63;4487908;32;20122;-79
2021/12/03 07:19:46;;;;;;;10.05;3.10;;;;;;;4.66;56.32;97798.16;4487963;32;20103;-83
2021/12/03 07:22:12;;;;;;;12.57;3.12;;;;;;;4.66;56.78;97812.97;4487855;32;20103;-80
2021/12/03 07:24:37;;;;;;;10.52;3.05;;;;;;;4.78;55.83;97815.00;4487855;32;20444;-79
2021/12/03 07:27:03;;;;;;;12.07;3.22;;;;;;;4.84;55.37;97812.09;4487821;32;20116;-80
2021/12/03 07:29:28;;;;;;;12.40;3.00;;;;;;;4.99;56.08;97827.97;4473572;32;20096;-80
2021/12/03 07:31:54;;;;;;;11.15;3.42;;;;;;;4.80;55.62;97833.19;4487669;32;20363;-79
2021/12/03 07:34:19;;;;;;;9.20;2.92;;;;;;;5.10;54.92;97849.19;4487403;32;20436;-79
2021/12/03 07:36:45;;;;;;;11.27;2.72;;;;;;;5.10;54.71;97852.63;4487417;32;20391;-80
2021/12/03 07:39:10;;;;;;;10.00;2.72;;;;;;;4.98;54.20;97862.78;4473084;32;20104;-82
2021/12/03 07:41:40;;;;;;;11.90;2.87;;;;;;;4.89;54.95;97883.19;4487589;32;20356;-84
2021/12/03 07:44:05;;;;;;;9.82;2.80;;;;;;;5.15;54.63;97885.50;4472568;31;20124;-87
2021/12/03 07:46:31;;;;;;;10.70;3.00;;;;;;;4.90;55.39;97887.47;4494689;31;20110;-81
2021/12/03 07:48:56;;;;;;;9.88;2.78;;;;;;;5.07;54.92;97888.47;4487174;31;20157;-83
2021/12/03 07:51:22;;;;;;;12.05;3.12;;;;;;;4.97;54.03;97895.88;4494409;31;20098;-83
2021/12/03 07:53:47;;;;;;;9.63;2.65;;;;;;;5.22;53.86;97884.31;4495305;31;20427;-83
2021/12/03 07:56:13;;;;;;;13.30;2.58;;;;;;;4.89;53.46;97900.62;4489144;31;20486;-83
2021/12/03 07:58:38;;;;;;;10.75;3.00;;;;;;;4.83;54.08;97906.09;4503500;31;20115;-83
2021/12/03 08:01:04;;;;;;;10.48;3.05;;;;;;;4.71;52.93;97900.53;4503484;31;20084;-83
2021/12/03 08:03:29;;;;;;;8.15;2.47;;;;;;;4.86;53.24;97912.03;4488674;31;20088;-83
2021/12/03 08:05:55;;;;;;;9.85;2.50;;;;;;;5.19;52.82;97932.28;4488910;31;20083;-83
2021/12/03 08:08:26;;;;;;;10.18;2.42;;;;;;;5.07;52.91;97930.25;4503437;31;20092;-82
2021/12/03 08:10:51;;;;;;;9.23;2.40;;;;;;;5.04;52.29;97931.25;4503176;31;20442;-79
2021/12/03 08:13:17;;;;;;;9.63;2.70;;;;;;;5.16;53.02;97939.41;4489134;31;20107;-80
2021/12/03 08:15:42;;;;;;;9.23;2.60;;;;;;;4.92;52.81;97934.38;4503474;31;20119;-80
2021/12/03 08:18:08;;;;;;;7.10;2.00;;;;;;;4.95;52.67;97952.53;4503559;31;20119;-80
2021/12/03 08:20:34;;;;;;;10.52;2.95;;;;;;;4.94;52.16;97971.72;4489242;31;20128;-80
2021/12/03 08:23:00;;;;;;;10.10;2.22;;;;;;;5.25;51.55;97941.59;4489285;31;20084;-80
2021/12/03 08:25:26;;;;;;;8.30;2.17;;;;;;;4.83;52.13;97972.19;4503229;31;20114;-80
2021/12/03 08:27:53;;;;;;;7.68;2.22;;;;;;;5.14;51.75;97976.03;4488651;31;20187;-80
2021/12/03 08:30:18;;;;;;;11.75;2.58;;;;;;;4.88;50.98;98001.53;4488770;31;20155;-80
2021/12/03 08:32:44;;;;;;;10.20;2.35;;;;;;;5.22;51.82;97991.38;4488945;31;20110;-80
2021/12/03 08:35:10;;;;;;;11.75;2.83;;;;;;;5.16;51.09;97996.84;4503175;31;20108;-80
2021/12/03 08:37:36;;;;;;;9.20;2.05;;;;;;;5.25;50.93;97997.28;4488820;31;20161;-80
2021/12/03 08:40:03;;;;;;;8.65;2.35;;;;;;;4.90;52.00;98004.91;4503003;31;20092;-80
2021/12/03 08:42:29;;;;;;;7.72;2.10;;;;;;;5.05;52.31;98010.38;4502966;31;20473;-80
2021/12/03 08:44:54;;;;;;;7.72;2.10;;;;;;;4.87;50.16;98009.47;4475563;31;20092;-80
2021/12/03 08:47:19;;;;;;;8.52;1.92;;;;;;;4.97;50.24;98015.97;4503108;31;20084;-80
2021/12/03 08:49:54;;;;;;;8.45;2.10;;;;;;;5.03;49.48;98017.44;4502950;31;20076;-80
2021/12/03 08:54:55;;;;;;;10.00;2.22;;;;;;;5.12;49.71;98040.53;4501943;31;20076;-80
2021/12/03 08:57:26;;;;;;;8.48;2.03;;;;;;;5.20;48.89;98064.53;4488718;31;20407;-80
2021/12/03 08:59:54;;;;;;;7.45;2.10;;;;;;;4.91;49.55;98053.59;4503013;31;20079;-80
2021/12/03 09:02:20;;;;;;;9.80;2.35;;;;;;;5.15;49.07;98058.66;4488626;31;20092;-80
2021/12/03 09:04:46;;;;;;;6.43;1.60;;;;;;;5.15;48.95;98063.88;4488663;31;20471;-80
2021/12/03 09:07:11;;;;;;;7.72;1.98;;;;;;;5.15;48.65;98058.66;4502837;31;20410;-80
2021/12/03 09:09:37;;;;;;;7.55;1.90;;;;;;;5.20;48.21;98059.31;4502737;31;20080;-79
2021/12/03 09:12:03;;;;;;;8.93;2.00;;;;;;;5.49;48.11;98065.00;4502838;31;20138;-79
2021/12/03 09:23:09;;;;;;;10.48;1.70;;;;;;;5.58;47.32;98100.28;4502922;31;20092;-80
2021/12/03 09:25:08;;;;;;;6.47;1.60;;;;;;;5.66;47.78;98098.16;4482358;31;20087;-80
2021/12/03 09:27:35;;;;;;;10.07;1.85;;;;;;;5.90;46.74;98091.81;4488492;31;20176;-80
2021/12/03 09:30:02;;;;;;;9.20;2.28;;;;;;;6.17;46.90;98093.25;4488419;31;20108;-80
2021/12/03 09:32:31;;;;;;;11.40;2.42;;;;;;;5.97;48.04;98086.31;4503096;31;20175;-80
2021/12/03 09:34:57;;;;;;;11.35;2.50;;;;;;;6.08;48.12;98089.28;4503078;31;20466;-80
2021/12/03 09:37:23;;;;;;;9.20;2.08;;;;;;;6.45;47.74;98100.59;4488668;31;20784;-80
2021/12/03 09:39:51;;;;;;;9.90;2.58;;;;;;;6.73;47.08;98084.38;4503043;31;20136;-79
2021/12/03 09:42:18;;;;;;;7.32;1.50;;;;;;;6.85;44.98;98088.13;4488675;31;20187;-80
2021/12/03 09:44:45;;;;;;;6.68;1.77;;;;;;;6.87;44.12;98094.16;4502877;31;20669;-80
2021/12/03 09:47:13;;;;;;;7.82;2.00;;;;;;;6.33;43.77;98094.19;4488598;31;20390;-80
2021/12/03 09:49:40;;;;;;;8.18;1.90;;;;;;;6.60;44.52;98094.59;4488407;31;20104;-80
2021/12/03 09:52:35;;;;;;;8.80;2.28;;;;;;;6.72;44.61;98097.53;4488362;31;20131;-80
2021/12/03 09:55:02;;;;;;;;;;;;;;;6.94;43.75;98092.09;4490800;31;20088;-80
2021/12/03 10:13:21;;;;;;;7.00;2.03;;;;;;;6.82;43.38;98119.72;4440487;32;20119;-80
2021/12/03 10:16:08;;;;;;;7.75;2.08;;;;;;;6.58;43.42;98112.16;4452991;32;20118;-81
2021/12/03 10:21:22;;;;;;;6.78;2.00;;;;;;;7.00;44.65;98105.69;4453127;32;20112;-80
2021/12/03 10:34:39;;;;;;;9.18;2.47;;;;;;;5.73;47.16;98115.28;4452901;32;20131;-80
2021/12/03 10:43:16;;;;;;;9.63;2.67;;;;;;;5.71;48.05;98131.00;4421806;32;20110;-80
2021/12/03 10:49:20;;;;;;;9.50;3.03;;;;;;;5.70;46.35;98133.72;4406364;32;20108;-80
2021/12/03 10:51:32;;;;;;;9.98;2.22;;;;;;;5.79;46.25;98130.66;4400071;32;20132;-80
2021/12/03 10:54:28;;;;;;;8.32;2.03;;;;;;;5.76;45.51;98148.28;4406409;32;20093;-80
2021/12/03 11:07:33;;;;;;;10.90;2.53;;;;;;;6.29;45.42;98143.19;4394556;32;20528;-80
2021/12/03 11:54:55;;;;;;;9.90;2.47;;;;;;;6.03;44.57;98203.72;4491416;31;20098;-80
2021/12/03 14:56:02;;;;;;;8.88;2.15;;;;;;;4.22;48.01;98355.47;4488076;32;20088;-81
2021/12/03 14:58:41;;;;;;;8.32;2.30;;;;;;;4.28;48.01;98363.91;4488046;32;20151;-80
2021/12/03 15:01:25;;;;;;;;;;;;;;;4.46;47.28;98367.63;4462517;32;20140;-79
2021/12/03 15:09:31;;;;;;;8.40;2.10;;;;;;;4.27;47.46;98371.81;4423710;32;20553;-79
2021/12/03 15:35:21;;;;;;;7.78;2.40;;;;;;;3.53;47.55;98416.84;4423581;32;20448;-80
2021/12/03 15:40:35;;;;;;;9.50;2.35;;;;;;;3.70;46.86;98408.47;4423444;32;20111;-81
2021/12/03 16:04:28;;;;;;;6.62;2.15;;;;;;;3.53;46.91;98434.22;4503243;31;20108;-80
2021/12/03 16:09:46;;;;;;;7.65;2.12;;;;;;;3.52;46.66;98441.19;4503420;31;20517;-81
2021/12/03 16:12:24;;;;;;;9.18;2.60;;;;;;;3.21;47.00;98443.88;4503054;31;20103;-80
2021/12/03 16:18:14;;;;;;;10.30;2.30;;;;;;;3.27;46.85;98448.91;4503414;31;20550;-82
2021/12/03 16:48:46;;;;;;;8.10;1.87;;;;;;;3.06;44.95;98473.81;4442007;32;20113;-82
2021/12/03 16:53:00;;;;;;;8.32;2.37;;;;;;;3.13;44.00;98485.75;4453833;32;20124;-81
2021/12/03 16:55:25;;;;;;;9.77;2.50;;;;;;;3.08;44.35;98502.41;4453788;32;20468;-81
2021/12/03 16:57:53;;;;;;;7.50;2.10;;;;;;;3.09;43.70;98499.75;4453778;32;20113;-81
2021/12/03 17:00:33;;;;;;;8.48;1.95;;;;;;;3.18;43.54;98493.41;4453735;32;20605;-81
2021/12/03 17:03:11;;;;;;;8.60;2.20;;;;;;;3.02;43.08;98503.44;4453805;32;20140;-81
2021/12/03 17:51:36;;;;;;;9.25;2.42;;;;;;;3.30;44.73;98532.13;4422537;32;20110;-82
2021/12/03 17:56:20;;;;;;;9.05;2.55;;;;;;;3.60;43.66;98542.53;4422592;32;20144;-82
2021/12/03 17:59:09;;;;;;;8.20;2.40;;;;;;;3.35;44.06;98529.37;4422216;32;20562;-82
2021/12/03 18:01:50;;;;;;;8.95;2.72;;;;;;;3.39;44.30;98540.56;4422530;32;20425;-82
2021/12/03 18:04:26;;;;;;;9.00;2.53;;;;;;;3.41;43.67;98534.41;4411102;32;20114;-82
2021/12/03 18:07:38;;;;;;;10.75;2.95;;;;;;;3.66;43.31;98546.69;4409653;32;20132;-82
2021/12/03 18:16:15;;;;;;;8.07;2.70;;;;;;;3.12;43.54;98533.50;4422223;32;20156;-82
2021/12/03 18:57:07;;;;;;;6.75;2.12;;;;;;;3.46;41.21;98545.53;4363430;32;20166;-82
2021/12/03 18:59:10;;;;;;;8.95;2.45;;;;;;;3.35;41.49;98553.66;4351152;32;20102;-82
2021/12/03 19:01:36;;;;;;;9.57;2.60;;;;;;;3.09;41.61;98551.81;4363343;32;20165;-82
2021/12/03 19:09:36;;;;;;;8.85;2.35;;;;;;;3.08;41.51;98551.84;4363399;32;20514;-82
2021/12/03 19:14:31;;;;;;;11.18;2.35;;;;;;;3.24;42.09;98547.91;4381384;32;20090;-82
2021/12/03 19:16:57;;;;;;;8.82;2.45;;;;;;;3.22;42.21;98543.66;4380875;32;20177;-82
2021/12/03 19:19:23;;;;;;;10.02;2.50;;;;;;;3.42;41.84;98537.84;4393183;32;20142;-82
2021/12/03 19:21:49;;;;;;;10.75;2.62;;;;;;;3.10;42.54;98539.66;4393258;32;20473;-82
2021/12/03 19:24:15;;;;;;;8.35;2.60;;;;;;;3.21;42.57;98552.37;4441279;31;20106;-82
2021/12/03 19:26:45;;;;;;;8.48;2.60;;;;;;;3.12;43.48;98537.84;4503688;31;20159;-82
2021/12/03 19:29:17;;;;;;;11.43;2.50;;;;;;;3.15;43.67;98543.00;4503829;31;20125;-82